Terminal Aerodrome Forecast
Issued by NWS Cleveland, OH

Home | Current Version | Previous Version | Graphics & Text | Print | Product List | Glossary On
Versions: 1 2 3 4 5 6 7 8 9 10 11 12 13 14 15 16
326
FTUS41 KCLE 200902 AAA
TAFMFD
TAF AMD
KMFD 200902Z 2009/2106 00000KT P6SM SCT020 BKN080
      TEMPO 2009/2013 3SM BR BKN020
     FM201500 23005KT P6SM BKN035
     FM201900 28006KT P6SM VCTS BKN040CB
     FM202300 35006KT P6SM SCT040=

USA.gov is the U.S. government's official web portal to all federal, state and local government web resources and services.